createdAt,value
2022-10-25T00:02:12.403Z,21.77
2022-10-25T00:04:39.878Z,21.98
2022-10-25T00:07:06.656Z,21.88
2022-10-25T00:09:33.430Z,22.02
2022-10-25T00:12:00.169Z,22.03
2022-10-25T00:14:26.962Z,19.35
2022-10-25T00:16:53.721Z,18.60
2022-10-25T00:19:20.456Z,19.15
2022-10-25T00:21:47.219Z,20.61
2022-10-25T00:24:13.990Z,21.14
2022-10-25T00:26:42.165Z,21.22
2022-10-25T00:29:08.993Z,21.55
2022-10-25T00:31:35.819Z,21.64
2022-10-25T00:34:02.570Z,21.77
2022-10-25T00:36:29.305Z,21.85
2022-10-25T00:38:56.081Z,21.86
2022-10-25T00:41:22.847Z,21.97
2022-10-25T00:43:49.633Z,22.27
2022-10-25T00:46:16.414Z,19.92
2022-10-25T00:48:43.219Z,18.37
2022-10-25T00:51:09.948Z,18.66
2022-10-25T00:53:36.713Z,20.46
2022-10-25T00:56:03.462Z,20.94
2022-10-25T00:58:30.208Z,21.22
2022-10-25T01:00:57.036Z,21.42
2022-10-25T01:03:23.839Z,21.63
2022-10-25T01:05:50.576Z,21.81
2022-10-25T01:08:17.374Z,21.74
2022-10-25T01:10:44.137Z,21.92
2022-10-25T01:13:10.884Z,21.91
2022-10-25T01:15:37.645Z,21.99
2022-10-25T01:18:04.391Z,20.09
2022-10-25T01:20:31.150Z,18.33
2022-10-25T01:22:57.908Z,18.44
2022-10-25T01:25:24.651Z,19.92
2022-10-25T01:27:51.412Z,20.67
2022-10-25T01:30:18.214Z,21.00
2022-10-25T01:32:45.326Z,21.27
2022-10-25T01:35:12.277Z,21.42
2022-10-25T01:37:39.031Z,21.63
2022-10-25T01:40:05.772Z,21.78
2022-10-25T01:42:32.522Z,21.80
2022-10-25T01:44:59.271Z,21.90
2022-10-25T01:47:26.030Z,22.01
2022-10-25T01:49:52.772Z,21.87
2022-10-25T01:52:19.521Z,19.04
2022-10-25T01:54:46.314Z,17.64
2022-10-25T01:57:13.053Z,18.36
2022-10-25T01:59:40.150Z,19.52
2022-10-25T02:02:06.905Z,20.36
2022-10-25T02:04:33.649Z,20.84
2022-10-25T02:07:00.397Z,21.18
2022-10-25T02:09:27.144Z,21.17
2022-10-25T02:11:53.887Z,21.46
2022-10-25T02:14:20.700Z,21.60
2022-10-25T02:16:47.441Z,21.60
2022-10-25T02:19:14.180Z,21.83
2022-10-25T02:21:40.932Z,21.76
2022-10-25T02:24:07.725Z,21.93
2022-10-25T02:26:34.468Z,21.86
2022-10-25T02:29:01.285Z,22.21
2022-10-25T02:31:28.060Z,22.11
2022-10-25T02:33:54.877Z,19.63
2022-10-25T02:36:21.651Z,18.03
2022-10-25T02:38:48.404Z,18.20
2022-10-25T02:41:15.198Z,19.65
2022-10-25T02:43:41.945Z,20.48
2022-10-25T02:46:08.736Z,21.01
2022-10-25T02:48:35.505Z,21.01
2022-10-25T02:51:02.302Z,21.46
2022-10-25T02:53:29.038Z,21.54
2022-10-25T02:55:55.777Z,21.57
2022-10-25T02:58:22.534Z,21.73
2022-10-25T03:00:49.327Z,21.66
2022-10-25T03:03:16.095Z,21.92
2022-10-25T03:05:42.854Z,21.80
2022-10-25T03:08:09.593Z,21.93
2022-10-25T03:10:36.350Z,22.01
2022-10-25T03:13:03.104Z,21.73
2022-10-25T03:15:29.846Z,18.80
2022-10-25T03:17:56.617Z,18.27
2022-10-25T03:20:23.368Z,19.56
2022-10-25T03:22:50.112Z,20.55
2022-10-25T03:25:16.939Z,21.01
2022-10-25T03:27:43.858Z,21.30
2022-10-25T03:30:10.873Z,21.61
2022-10-25T03:32:37.626Z,21.65
2022-10-25T03:35:04.458Z,21.76
2022-10-25T03:37:31.229Z,21.76
2022-10-25T03:39:57.977Z,21.79
2022-10-25T03:42:24.787Z,21.84
2022-10-25T03:44:51.671Z,22.06
2022-10-25T03:47:18.533Z,19.38
2022-10-25T03:49:45.299Z,18.04
2022-10-25T03:52:12.053Z,18.82
2022-10-25T03:54:38.874Z,20.04
2022-10-25T03:57:05.679Z,20.67
2022-10-25T03:59:32.432Z,21.04
2022-10-25T04:01:59.213Z,21.34
2022-10-25T04:04:26.004Z,21.47
2022-10-25T04:06:52.761Z,21.64
2022-10-25T04:09:19.505Z,21.89
2022-10-25T04:11:46.255Z,21.92
2022-10-25T04:14:13.529Z,21.96
2022-10-25T04:16:40.273Z,22.03
2022-10-25T04:19:07.055Z,21.93
2022-10-25T04:21:33.817Z,22.07
2022-10-25T04:24:03.474Z,19.74
2022-10-25T04:26:31.365Z,17.88
2022-10-25T04:28:58.239Z,18.35
2022-10-25T04:31:25.020Z,19.64
2022-10-25T04:33:51.915Z,20.57
2022-10-25T04:36:18.682Z,21.05
2022-10-25T04:38:45.428Z,21.19
2022-10-25T04:41:12.273Z,21.41
2022-10-25T04:43:39.025Z,21.61
2022-10-25T04:46:05.771Z,21.62
2022-10-25T04:48:32.536Z,21.66
2022-10-25T04:50:59.531Z,21.69
2022-10-25T04:53:26.268Z,21.88
2022-10-25T04:55:53.032Z,21.84
2022-10-25T04:58:19.810Z,21.97
2022-10-25T05:00:46.556Z,22.08
2022-10-25T05:03:13.484Z,19.67
2022-10-25T05:05:40.641Z,17.90
2022-10-25T05:08:07.376Z,18.48
2022-10-25T05:10:34.145Z,19.70
2022-10-25T05:13:01.815Z,20.84
2022-10-25T05:15:28.565Z,21.10
2022-10-25T05:17:55.312Z,21.18
2022-10-25T05:20:22.225Z,21.31
2022-10-25T05:22:49.371Z,21.41
2022-10-25T05:25:16.464Z,21.62
2022-10-25T05:27:43.206Z,21.67
2022-10-25T05:30:09.973Z,21.75
2022-10-25T05:32:36.761Z,21.99
2022-10-25T05:35:03.519Z,22.03
2022-10-25T05:37:30.264Z,22.00
2022-10-25T05:39:57.036Z,22.09
2022-10-25T05:42:23.784Z,20.05
2022-10-25T05:44:50.597Z,18.17
2022-10-25T05:47:17.359Z,17.61
2022-10-25T05:49:44.133Z,19.21
2022-10-25T05:52:11.247Z,20.07
2022-10-25T05:54:38.059Z,20.67
2022-10-25T05:57:04.812Z,21.04
2022-10-25T05:59:31.592Z,21.16
2022-10-25T06:01:58.541Z,21.32
2022-10-25T06:04:25.487Z,21.56
2022-10-25T06:06:53.023Z,21.54
2022-10-25T06:09:19.959Z,21.58
2022-10-25T06:11:46.778Z,21.73
2022-10-25T06:14:13.524Z,21.80
2022-10-25T06:16:40.340Z,21.90
2022-10-25T06:19:07.095Z,21.95
2022-10-25T06:21:33.856Z,22.06
2022-10-25T06:24:00.671Z,21.80
2022-10-25T06:26:27.418Z,18.64
2022-10-25T06:28:54.205Z,17.76
2022-10-25T06:31:21.027Z,19.05
2022-10-25T06:33:47.878Z,20.06
2022-10-25T06:36:15.377Z,20.78
2022-10-25T06:38:42.141Z,21.11
2022-10-25T06:41:08.893Z,21.24
2022-10-25T06:43:35.650Z,21.46
2022-10-25T06:46:02.421Z,21.65
2022-10-25T06:48:29.397Z,21.64
2022-10-25T06:50:56.149Z,21.74
2022-10-25T06:53:22.960Z,21.74
2022-10-25T06:55:49.756Z,21.90
2022-10-25T06:58:16.494Z,22.06
2022-10-25T07:00:46.009Z,22.08
2022-10-25T07:03:15.607Z,22.07
2022-10-25T07:05:42.360Z,19.02
2022-10-25T07:08:09.226Z,18.13
2022-10-25T07:10:35.983Z,19.29
2022-10-25T07:13:02.737Z,20.46
2022-10-25T07:15:29.500Z,20.95
2022-10-25T07:17:56.342Z,21.36
2022-10-25T07:20:23.106Z,21.44
2022-10-25T07:22:50.172Z,21.59
2022-10-25T07:25:16.904Z,21.70
2022-10-25T07:27:43.658Z,21.81
2022-10-25T07:30:10.436Z,21.79
2022-10-25T07:32:41.486Z,22.03
2022-10-25T07:35:09.316Z,20.90
2022-10-25T07:37:36.088Z,18.73
2022-10-25T07:40:02.849Z,18.61
2022-10-25T07:42:29.648Z,20.26
2022-10-25T07:44:56.491Z,20.82
2022-10-25T07:47:23.241Z,21.20
2022-10-25T07:49:49.992Z,21.41
2022-10-25T07:52:16.754Z,21.54
2022-10-25T07:57:15.171Z,21.77
2022-10-25T07:59:41.947Z,21.86
2022-10-25T08:02:08.693Z,22.08
2022-10-25T08:04:35.429Z,22.04
2022-10-25T08:07:02.251Z,20.59
2022-10-25T08:09:40.039Z,18.70
2022-10-25T08:12:06.803Z,18.75
2022-10-25T08:14:35.173Z,20.30
2022-10-25T08:17:04.984Z,20.94
2022-10-25T08:19:31.800Z,21.46
2022-10-25T08:21:58.537Z,21.43
2022-10-25T08:24:25.482Z,21.61
2022-10-25T08:26:52.274Z,21.74
2022-10-25T08:29:19.035Z,21.87
2022-10-25T08:31:45.870Z,22.06
2022-10-25T08:34:12.692Z,21.88
2022-10-25T08:36:39.438Z,22.09
2022-10-25T08:39:06.189Z,20.70
2022-10-25T08:41:32.953Z,18.78
2022-10-25T08:46:27.478Z,20.27
2022-10-25T08:48:54.240Z,21.04
2022-10-25T08:51:20.978Z,21.29
2022-10-25T08:53:48.415Z,21.49
2022-10-25T08:56:17.239Z,21.57
2022-10-25T08:58:45.332Z,21.65
2022-10-25T09:01:12.203Z,21.81
2022-10-25T09:06:10.732Z,22.01
2022-10-25T09:08:37.528Z,19.02
2022-10-25T09:11:04.291Z,18.71
2022-10-25T09:13:31.155Z,19.63
2022-10-25T09:15:58.421Z,20.85
2022-10-25T09:18:25.210Z,21.21
2022-10-25T09:20:51.956Z,21.41
2022-10-25T09:23:18.755Z,21.47
2022-10-25T09:25:45.565Z,21.75
2022-10-25T09:28:12.325Z,21.68
2022-10-25T09:30:39.075Z,21.83
2022-10-25T09:33:05.902Z,22.03
2022-10-25T09:35:32.817Z,22.23
2022-10-25T09:37:59.601Z,21.94
2022-10-25T09:40:26.380Z,19.18
2022-10-25T09:42:53.187Z,18.82
2022-10-25T09:45:20.025Z,19.84
2022-10-25T09:47:47.059Z,20.89
2022-10-25T09:50:13.956Z,21.41
2022-10-25T09:52:40.892Z,21.66
2022-10-25T09:55:07.707Z,21.65
2022-10-25T09:57:34.469Z,21.80
2022-10-25T10:00:01.212Z,21.90
2022-10-25T10:02:28.101Z,21.97
2022-10-25T10:04:54.985Z,22.03
2022-10-25T10:07:21.734Z,21.53
2022-10-25T10:09:48.490Z,19.04
2022-10-25T10:12:15.281Z,18.62
2022-10-25T10:14:42.024Z,20.31
2022-10-25T10:17:08.798Z,21.07
2022-10-25T10:19:35.560Z,21.33
2022-10-25T10:22:02.357Z,21.48
2022-10-25T10:24:29.618Z,21.62
2022-10-25T10:26:57.159Z,21.89
2022-10-25T10:29:23.964Z,21.90
2022-10-25T10:31:50.762Z,22.01
2022-10-25T10:34:17.521Z,22.14
2022-10-25T10:36:45.703Z,21.82
2022-10-25T10:39:12.549Z,19.05
2022-10-25T10:41:39.313Z,18.79
2022-10-25T10:44:06.105Z,19.99
2022-10-25T10:46:32.921Z,21.03
2022-10-25T10:48:59.678Z,21.39
2022-10-25T10:51:43.125Z,21.50
2022-10-25T10:54:11.058Z,21.59
2022-10-25T10:56:37.802Z,21.83
2022-10-25T10:59:04.564Z,21.93
2022-10-25T11:01:32.157Z,21.98
2022-10-25T11:04:00.737Z,21.90
2022-10-25T11:06:27.833Z,19.22
2022-10-25T11:08:54.619Z,18.73
2022-10-25T11:11:21.438Z,19.80
2022-10-25T11:13:51.126Z,20.97
2022-10-25T11:16:18.546Z,21.15
2022-10-25T11:18:45.323Z,21.49
2022-10-25T11:21:12.078Z,21.56
2022-10-25T11:23:38.861Z,21.81
2022-10-25T11:26:05.635Z,21.93
2022-10-25T11:28:32.409Z,21.97
2022-10-25T11:30:59.173Z,22.02
2022-10-25T11:33:26.000Z,21.61
2022-10-25T11:35:52.752Z,19.19
2022-10-25T11:38:19.532Z,18.74
2022-10-25T11:40:46.268Z,20.51
2022-10-25T11:43:14.154Z,21.16
2022-10-25T11:45:40.933Z,21.45
2022-10-25T11:48:07.792Z,21.59
2022-10-25T11:50:34.555Z,21.77
2022-10-25T11:53:01.329Z,21.82
2022-10-25T11:55:28.072Z,21.88
2022-10-25T11:57:54.852Z,21.94
2022-10-25T12:00:21.702Z,22.04
2022-10-25T12:02:48.739Z,19.50
2022-10-25T12:05:15.801Z,18.70
2022-10-25T12:07:42.563Z,19.27
2022-10-25T12:10:09.319Z,20.72
2022-10-25T12:12:36.075Z,21.14
2022-10-25T12:15:02.861Z,21.37
2022-10-25T12:17:29.604Z,21.63
2022-10-25T12:19:56.390Z,21.74
2022-10-25T12:22:23.178Z,21.83
2022-10-25T12:24:50.013Z,21.88
2022-10-25T12:27:16.798Z,21.92
2022-10-25T12:29:43.589Z,22.11
2022-10-25T12:32:10.417Z,20.16
2022-10-25T12:34:37.165Z,18.81
2022-10-25T12:37:03.919Z,18.76
2022-10-25T12:39:30.798Z,20.48
2022-10-25T12:41:57.533Z,21.14
2022-10-25T12:44:24.285Z,21.52
2022-10-25T12:46:51.038Z,21.69
2022-10-25T12:49:17.798Z,21.66
2022-10-25T12:51:44.553Z,21.74
2022-10-25T12:54:11.304Z,22.00
2022-10-25T12:56:38.149Z,21.99
2022-10-25T12:59:04.972Z,21.95
2022-10-25T13:01:31.722Z,19.28
2022-10-25T13:03:58.501Z,18.67
2022-10-25T13:06:25.416Z,19.93
2022-10-25T13:08:52.172Z,20.97
2022-10-25T13:11:18.929Z,21.24
2022-10-25T13:13:45.998Z,21.57
2022-10-25T13:16:12.784Z,21.73
2022-10-25T13:18:39.909Z,21.82
2022-10-25T13:21:06.699Z,21.86
2022-10-25T13:23:33.452Z,22.03
2022-10-25T13:26:00.253Z,19.72
2022-10-25T13:28:27.010Z,18.63
2022-10-25T13:30:53.745Z,19.07
2022-10-25T13:33:27.168Z,20.65
2022-10-25T13:35:53.919Z,21.11
2022-10-25T13:38:20.677Z,21.42
2022-10-25T13:40:47.433Z,21.36
2022-10-25T13:43:14.185Z,21.69
2022-10-25T13:45:40.978Z,21.88
2022-10-25T13:48:07.758Z,21.99
2022-10-25T13:50:34.498Z,22.01
2022-10-25T13:53:02.628Z,22.04
2022-10-25T13:55:29.976Z,19.56
2022-10-25T13:57:56.928Z,18.60
2022-10-25T14:00:23.711Z,19.19
2022-10-25T14:02:50.517Z,20.63
2022-10-25T14:05:17.260Z,21.22
2022-10-25T14:07:44.755Z,21.39
2022-10-25T14:10:11.559Z,21.55
2022-10-25T14:12:38.356Z,21.60
2022-10-25T14:15:05.150Z,21.89
2022-10-25T14:17:31.928Z,21.81
2022-10-25T14:19:58.822Z,22.00
2022-10-25T14:22:27.867Z,21.53
2022-10-25T14:24:57.135Z,18.90
2022-10-25T14:27:23.878Z,18.69
2022-10-25T14:29:50.627Z,20.13
2022-10-25T14:32:17.390Z,21.22
2022-10-25T14:34:44.142Z,21.32
2022-10-25T14:37:10.889Z,21.77
2022-10-25T14:39:37.664Z,21.62
2022-10-25T14:42:04.992Z,21.78
2022-10-25T14:44:31.738Z,21.82
2022-10-25T14:46:58.526Z,21.84
2022-10-25T14:49:25.345Z,21.49
2022-10-25T14:51:52.095Z,18.92
2022-10-25T14:54:19.952Z,18.41
2022-10-25T14:56:46.693Z,19.76
2022-10-25T14:59:13.465Z,20.80
2022-10-25T15:01:40.552Z,21.28
2022-10-25T15:04:07.338Z,21.52
2022-10-25T15:06:34.105Z,21.71
2022-10-25T15:09:36.937Z,21.79
2022-10-25T15:11:47.658Z,21.87
2022-10-25T15:14:14.438Z,21.85
2022-10-25T15:16:41.258Z,21.20
2022-10-25T15:19:08.060Z,18.76
2022-10-25T15:21:34.829Z,18.25
2022-10-25T15:24:01.572Z,19.82
2022-10-25T15:26:28.352Z,20.86
2022-10-25T15:28:55.117Z,21.27
2022-10-25T15:31:24.533Z,21.43
2022-10-25T15:33:51.649Z,21.46
2022-10-25T15:36:18.481Z,21.86
2022-10-25T15:41:31.972Z,21.94
2022-10-25T15:43:58.742Z,21.88
2022-10-25T15:46:25.547Z,22.06
2022-10-25T15:48:52.368Z,22.00
2022-10-25T15:51:19.110Z,19.65
2022-10-25T15:53:45.859Z,18.50
2022-10-25T15:56:12.639Z,18.78
2022-10-25T15:58:39.450Z,20.43
2022-10-25T16:01:06.309Z,21.28
2022-10-25T16:03:33.144Z,21.36
2022-10-25T16:05:59.971Z,21.51
2022-10-25T16:08:26.810Z,21.66
2022-10-25T16:10:53.627Z,21.77
2022-10-25T16:13:20.433Z,21.82
2022-10-25T16:15:47.172Z,21.99
2022-10-25T16:18:14.018Z,22.10
2022-10-25T16:20:40.892Z,21.00
2022-10-25T16:23:07.647Z,18.68
2022-10-25T16:25:34.465Z,18.37
2022-10-25T16:28:01.472Z,19.97
2022-10-25T16:30:28.220Z,20.88
2022-10-25T16:32:54.977Z,21.12
2022-10-25T16:35:24.186Z,21.47
2022-10-25T16:37:51.081Z,21.49
2022-10-25T16:40:17.870Z,21.83
2022-10-25T16:42:44.644Z,21.81
2022-10-25T16:45:11.436Z,21.89
2022-10-25T16:47:38.198Z,22.04
2022-10-25T16:50:04.942Z,22.13
2022-10-25T16:52:31.694Z,20.51
2022-10-25T16:54:58.446Z,18.89
2022-10-25T16:57:25.198Z,18.57
2022-10-25T16:59:51.943Z,20.15
2022-10-25T17:02:18.937Z,20.95
2022-10-25T17:04:45.708Z,21.15
2022-10-25T17:07:12.479Z,21.56
2022-10-25T17:09:39.280Z,21.55
2022-10-25T17:12:06.027Z,21.73
2022-10-25T17:14:32.768Z,21.95
2022-10-25T17:17:03.108Z,21.92
2022-10-25T17:19:30.197Z,22.02
2022-10-25T17:21:57.076Z,22.10
2022-10-25T17:24:23.888Z,19.99
2022-10-25T17:26:50.677Z,18.68
2022-10-25T17:29:17.420Z,18.72
2022-10-25T17:31:44.172Z,20.30
2022-10-25T17:34:10.919Z,21.15
2022-10-25T17:36:38.064Z,21.18
2022-10-25T17:39:04.917Z,21.47
2022-10-25T17:41:31.699Z,21.56
2022-10-25T17:43:58.443Z,21.76
2022-10-25T17:46:25.232Z,22.04
2022-10-25T17:48:51.975Z,21.96
2022-10-25T17:51:18.709Z,22.05
2022-10-25T17:53:45.469Z,22.13
2022-10-25T17:56:12.837Z,19.54
2022-10-25T17:58:39.588Z,18.11
2022-10-25T18:01:06.402Z,18.82
2022-10-25T18:03:33.373Z,20.10
2022-10-25T18:06:00.182Z,20.78
2022-10-25T18:08:26.953Z,21.15
2022-10-25T18:10:53.777Z,21.36
2022-10-25T18:13:23.108Z,21.50
2022-10-25T18:15:50.295Z,21.58
2022-10-25T18:18:17.100Z,21.74
2022-10-25T18:20:45.003Z,21.86
2022-10-25T18:23:13.700Z,21.87
2022-10-25T18:25:40.764Z,22.02
2022-10-25T18:28:07.517Z,22.14
2022-10-25T18:30:34.329Z,20.95
2022-10-25T18:33:01.072Z,18.43
2022-10-25T18:35:27.991Z,18.13
2022-10-25T18:37:57.072Z,19.76
2022-10-25T18:40:24.222Z,20.72
2022-10-25T18:42:51.048Z,21.08
2022-10-25T18:45:17.849Z,21.42
2022-10-25T18:47:44.695Z,21.59
2022-10-25T18:50:11.604Z,21.60
2022-10-25T18:52:38.365Z,21.62
2022-10-25T18:55:05.168Z,21.75
2022-10-25T18:57:31.946Z,21.87
2022-10-25T18:59:58.721Z,22.04
2022-10-25T19:02:25.587Z,22.10
2022-10-25T19:04:52.428Z,21.72
2022-10-25T19:07:19.245Z,18.97
2022-10-25T19:09:45.989Z,17.68
2022-10-25T19:12:12.728Z,18.83
2022-10-25T19:14:39.544Z,19.82
2022-10-25T19:17:06.412Z,20.49
2022-10-25T19:19:33.166Z,21.10
2022-10-25T19:21:59.912Z,21.10
2022-10-25T19:24:26.711Z,21.46
2022-10-25T19:26:53.508Z,21.54
2022-10-25T19:29:20.284Z,21.62
2022-10-25T19:31:47.012Z,21.67
2022-10-25T19:34:13.758Z,21.82
2022-10-25T19:36:40.513Z,21.86
2022-10-25T19:39:07.281Z,21.84
2022-10-25T19:41:34.054Z,21.98
2022-10-25T19:44:00.818Z,22.13
2022-10-25T19:46:27.612Z,19.54
2022-10-25T19:48:56.065Z,17.88
2022-10-25T19:51:22.877Z,18.41
2022-10-25T19:53:49.761Z,19.82
2022-10-25T19:56:16.565Z,20.72
2022-10-25T19:58:43.421Z,21.16
2022-10-25T20:01:10.401Z,21.60
2022-10-25T20:03:37.243Z,21.46
2022-10-25T20:06:04.010Z,21.62
2022-10-25T20:08:30.753Z,21.60
2022-10-25T20:10:57.610Z,21.64
2022-10-25T20:13:24.373Z,22.05
2022-10-25T20:15:55.487Z,21.95
2022-10-25T20:18:22.433Z,21.93
2022-10-25T20:20:53.003Z,22.02
2022-10-25T20:23:20.662Z,21.98
2022-10-25T20:25:47.422Z,19.13
2022-10-25T20:28:14.181Z,17.84
2022-10-25T20:30:41.006Z,18.71
2022-10-25T20:33:07.809Z,20.00
2022-10-25T20:35:34.586Z,20.63
2022-10-25T20:38:01.341Z,21.03
2022-10-25T20:40:28.157Z,21.31
2022-10-25T20:42:54.922Z,21.46
2022-10-25T20:45:21.676Z,21.54
2022-10-25T20:47:50.529Z,21.67
2022-10-25T20:50:17.624Z,21.63
2022-10-25T20:52:58.618Z,21.87
2022-10-25T20:55:31.194Z,21.95
2022-10-25T20:57:57.957Z,22.01
2022-10-25T21:00:24.785Z,22.13
2022-10-25T21:02:51.544Z,19.79
2022-10-25T21:05:18.285Z,18.04
2022-10-25T21:07:45.177Z,17.71
2022-10-25T21:10:12.062Z,19.24
2022-10-25T21:12:38.821Z,20.15
2022-10-25T21:15:09.449Z,20.91
2022-10-25T21:17:38.712Z,21.01
2022-10-25T21:20:05.464Z,21.26
2022-10-25T21:22:32.231Z,21.36
2022-10-25T21:24:59.007Z,21.66
2022-10-25T21:27:25.809Z,21.75
2022-10-25T21:29:52.625Z,21.71
2022-10-25T21:32:19.796Z,21.74
2022-10-25T21:34:46.765Z,21.86
2022-10-25T21:37:13.514Z,21.95
2022-10-25T21:39:40.560Z,21.95
2022-10-25T21:42:07.372Z,22.11
2022-10-25T21:44:34.199Z,20.52
2022-10-25T21:47:00.966Z,18.31
2022-10-25T21:49:27.762Z,17.80
2022-10-25T21:51:54.498Z,19.20
2022-10-25T21:54:25.023Z,20.09
2022-10-25T21:56:52.545Z,20.61
2022-10-25T21:59:19.370Z,20.99
2022-10-25T22:01:46.223Z,21.22
2022-10-25T22:04:13.150Z,21.41
2022-10-25T22:06:39.978Z,21.55
2022-10-25T22:09:06.741Z,21.57
2022-10-25T22:11:33.479Z,21.67
2022-10-25T22:14:00.216Z,21.83
2022-10-25T22:16:27.003Z,21.98
2022-10-25T22:18:54.626Z,21.92
2022-10-25T22:21:21.482Z,22.00
2022-10-25T22:23:48.302Z,19.92
2022-10-25T22:26:15.056Z,18.26
2022-10-25T22:28:41.854Z,18.11
2022-10-25T22:31:08.682Z,19.59
2022-10-25T22:33:35.422Z,20.25
2022-10-25T22:36:02.417Z,20.92
2022-10-25T22:38:29.181Z,21.17
2022-10-25T22:40:55.943Z,21.37
2022-10-25T22:43:22.689Z,21.38
2022-10-25T22:45:49.452Z,21.55
2022-10-25T22:48:16.196Z,21.72
2022-10-25T22:50:42.939Z,21.61
2022-10-25T22:53:09.700Z,21.75
2022-10-25T22:55:36.456Z,21.74
2022-10-25T22:58:03.201Z,21.89
2022-10-25T23:00:29.965Z,22.04
2022-10-25T23:02:56.750Z,21.98
2022-10-25T23:05:23.508Z,19.11
2022-10-25T23:07:50.409Z,17.19
2022-10-25T23:10:18.647Z,17.80
2022-10-25T23:12:45.590Z,19.25
2022-10-25T23:15:12.459Z,20.29
2022-10-25T23:17:39.230Z,20.91
2022-10-25T23:20:05.988Z,21.02
2022-10-25T23:22:32.743Z,21.17
2022-10-25T23:24:59.505Z,21.31
2022-10-25T23:27:26.248Z,21.51
2022-10-25T23:29:52.994Z,21.63
2022-10-25T23:32:19.744Z,21.69
2022-10-25T23:34:46.489Z,21.70
2022-10-25T23:37:13.263Z,21.75
2022-10-25T23:39:40.005Z,22.04
2022-10-25T23:42:06.749Z,21.96
2022-10-25T23:44:33.514Z,21.87
2022-10-25T23:47:00.255Z,21.80
2022-10-25T23:49:27.056Z,18.77
2022-10-25T23:51:54.003Z,17.12
2022-10-25T23:54:20.864Z,17.98
2022-10-25T23:56:47.666Z,19.26
2022-10-25T23:59:14.526Z,20.25
